Time;durP1;ratioP1;P1;durP2;ratioP2;P2;SDS_P1;SDS_P2;PMS_P1;PMS_P2;Temp;Humidity;BMP_temperature;BMP_pressure;BME280_temperature;BME280_humidity;BME280_pressure;Samples;Min_cycle;Max_cycle;Signal;HPM_P1;HPM_P2
2021/09/16 00:02:02;;;;;;;4.73;4.33;;;;;;;17.53;100.00;97817.84;4991007;28;20595;-69
2021/09/16 00:04:30;;;;;;;4.50;4.20;;;;;;;17.54;100.00;97816.81;4996432;28;20200;-67
2021/09/16 00:06:58;;;;;;;4.77;4.47;;;;;;;17.53;100.00;97811.66;4962144;28;20374;-67
2021/09/16 00:09:26;;;;;;;5.30;4.13;;;;;;;17.55;100.00;97805.06;4997625;28;20236;-67
2021/09/16 00:11:54;;;;;;;4.40;4.00;;;;;;;17.53;100.00;97811.66;4977747;28;20435;-68
2021/09/16 00:14:22;;;;;;;5.30;4.53;;;;;;;17.52;100.00;97815.38;4986376;28;20228;-67
2021/09/16 00:16:50;;;;;;;5.00;4.60;;;;;;;17.48;100.00;97815.81;4998847;28;20205;-66
2021/09/16 00:19:19;;;;;;;4.97;4.57;;;;;;;17.46;100.00;97817.06;5002132;28;20385;-68
2021/09/16 00:21:47;;;;;;;4.43;4.13;;;;;;;17.47;100.00;97814.16;4964397;28;20688;-66
2021/09/16 00:24:15;;;;;;;5.00;4.60;;;;;;;17.59;100.00;97811.63;5003761;28;20538;-68
2021/09/16 00:26:43;;;;;;;6.47;4.10;;;;;;;17.49;100.00;97804.06;4998963;28;20231;-66
2021/09/16 00:29:11;;;;;;;4.80;4.40;;;;;;;17.48;100.00;97807.78;4983518;28;20224;-69
2021/09/16 00:31:39;;;;;;;4.63;4.33;;;;;;;17.42;100.00;97808.59;5000778;28;20218;-66
2021/09/16 00:34:07;;;;;;;5.13;4.77;;;;;;;17.42;100.00;97800.56;5002386;28;20465;-69
2021/09/16 00:36:37;;;;;;;8.43;6.20;;;;;;;17.41;100.00;97803.47;4969361;28;20803;-66
2021/09/16 00:39:05;;;;;;;4.93;4.63;;;;;;;17.39;100.00;97795.66;5003567;28;20224;-69
2021/09/16 00:41:33;;;;;;;4.73;4.10;;;;;;;17.46;100.00;97798.31;4999692;28;20214;-66
2021/09/16 00:44:01;;;;;;;5.83;4.33;;;;;;;17.40;100.00;97799.16;4989518;28;20300;-68
2021/09/16 00:46:29;;;;;;;5.13;4.67;;;;;;;17.38;100.00;97804.72;4994567;28;20215;-67
2021/09/16 00:48:57;;;;;;;5.40;5.00;;;;;;;17.34;100.00;97803.50;4999908;28;20493;-68
2021/09/16 00:51:25;;;;;;;4.60;4.30;;;;;;;17.32;100.00;97811.75;5000785;28;20275;-68
2021/09/16 00:53:55;;;;;;;4.27;3.97;;;;;;;17.34;100.00;97815.03;4965679;28;20783;-68
2021/09/16 00:56:23;;;;;;;5.63;4.40;;;;;;;17.34;100.00;97820.41;4999798;28;20228;-68
2021/09/16 00:58:53;;;;;;;5.47;5.00;;;;;;;17.32;100.00;97824.31;4988593;28;20276;-66
2021/09/16 01:01:21;;;;;;;5.20;4.80;;;;;;;17.27;100.00;97814.25;4994115;28;20205;-69
2021/09/16 01:03:49;;;;;;;5.13;4.70;;;;;;;17.30;100.00;97824.53;4997409;28;20223;-66
2021/09/16 01:06:17;;;;;;;6.00;4.77;;;;;;;17.27;100.00;97818.78;4999511;28;20196;-68
2021/09/16 01:08:45;;;;;;;5.80;4.40;;;;;;;17.26;100.00;97817.97;4968336;28;20239;-66
2021/09/16 01:11:15;;;;;;;4.90;4.60;;;;;;;17.23;100.00;97822.91;5000957;28;20208;-68
2021/09/16 01:13:43;;;;;;;5.00;4.60;;;;;;;17.36;100.00;97821.00;4996357;28;20228;-66
2021/09/16 01:16:11;;;;;;;5.07;4.67;;;;;;;17.33;100.00;97818.75;4981199;28;20239;-69
2021/09/16 01:18:39;;;;;;;5.87;5.37;;;;;;;17.32;100.00;97819.78;5001805;28;20228;-66
2021/09/16 01:21:08;;;;;;;5.03;4.73;;;;;;;17.36;100.00;97817.50;5001636;28;20221;-68
2021/09/16 01:23:37;;;;;;;4.90;4.53;;;;;;;17.27;100.00;97816.09;4992664;28;20209;-66
2021/09/16 01:26:05;;;;;;;5.10;4.70;;;;;;;17.24;100.00;97817.34;4994837;28;20749;-69
2021/09/16 01:28:33;;;;;;;5.40;4.93;;;;;;;17.19;100.00;97817.97;4963107;28;20236;-66
2021/09/16 01:31:01;;;;;;;4.90;4.50;;;;;;;17.25;100.00;97816.31;4995872;28;20362;-69
2021/09/16 01:33:29;;;;;;;5.40;5.00;;;;;;;17.22;100.00;97814.03;5000252;28;20204;-66
2021/09/16 01:35:57;;;;;;;5.83;5.37;;;;;;;17.27;100.00;97813.41;4994540;28;20228;-68
2021/09/16 01:38:25;;;;;;;5.20;4.87;;;;;;;17.21;100.00;97807.03;4985589;28;20232;-66
2021/09/16 01:40:54;;;;;;;5.00;4.60;;;;;;;17.19;100.00;97811.78;5001572;28;20205;-69
2021/09/16 01:43:22;;;;;;;5.47;4.97;;;;;;;17.14;100.00;97812.44;4963073;28;20208;-66
2021/09/16 01:45:50;;;;;;;5.43;4.93;;;;;;;17.12;100.00;97824.38;4998599;28;20205;-68
2021/09/16 01:48:18;;;;;;;5.13;4.67;;;;;;;17.08;100.00;97807.94;4998279;28;20227;-66
2021/09/16 01:50:48;;;;;;;5.83;4.87;;;;;;;17.13;100.00;97813.47;4999464;28;20720;-68
2021/09/16 01:53:16;;;;;;;5.20;4.33;;;;;;;17.13;100.00;97807.28;4986522;28;20683;-66
2021/09/16 01:55:44;;;;;;;5.03;4.50;;;;;;;17.01;100.00;97797.25;4999050;28;20454;-69
2021/09/16 01:58:13;;;;;;;5.70;5.30;;;;;;;16.97;100.00;97793.31;4970023;28;20233;-66
2021/09/16 02:00:41;;;;;;;5.03;4.63;;;;;;;16.91;100.00;97794.16;4999188;28;20490;-68
2021/09/16 02:03:09;;;;;;;4.93;4.63;;;;;;;16.84;100.00;97798.69;5003159;28;20209;-67
2021/09/16 02:05:37;;;;;;;5.20;4.70;;;;;;;16.73;100.00;97802.84;4998643;28;20910;-69
2021/09/16 02:08:05;;;;;;;6.53;5.10;;;;;;;16.75;100.00;97806.13;5002119;28;20248;-68
2021/09/16 02:10:33;;;;;;;5.10;4.70;;;;;;;16.66;100.00;97813.53;4985408;28;20209;-68
2021/09/16 02:13:01;;;;;;;5.10;4.60;;;;;;;16.71;100.00;97811.06;4969031;28;20333;-68
2021/09/16 02:15:30;;;;;;;5.23;4.37;;;;;;;16.68;100.00;97816.81;4996639;28;20224;-66
2021/09/16 02:17:58;;;;;;;5.17;4.43;;;;;;;16.60;100.00;97809.03;5002035;28;20235;-69
2021/09/16 02:20:26;;;;;;;5.53;4.30;;;;;;;16.61;100.00;97799.97;4999997;28;20297;-67
2021/09/16 02:22:54;;;;;;;5.93;5.43;;;;;;;16.64;100.00;97810.25;5001348;28;20685;-68
2021/09/16 02:25:22;;;;;;;5.07;4.67;;;;;;;16.53;100.00;97802.84;4987964;28;20624;-66
2021/09/16 02:27:50;;;;;;;5.53;5.07;;;;;;;16.53;100.00;97808.22;5001147;28;20587;-68
2021/09/16 02:30:18;;;;;;;5.57;5.07;;;;;;;16.51;100.00;97808.41;4967372;28;20220;-66
2021/09/16 02:32:47;;;;;;;4.70;4.40;;;;;;;16.51;100.00;97803.06;5000089;28;20736;-68
2021/09/16 02:35:15;;;;;;;5.30;4.80;;;;;;;16.52;100.00;97801.22;5002320;28;20213;-66
2021/09/16 02:37:43;;;;;;;6.23;4.80;;;;;;;16.51;100.00;97794.22;4995866;28;20220;-68
2021/09/16 02:40:12;;;;;;;5.30;4.80;;;;;;;16.50;100.00;97804.09;5000236;28;20212;-66
2021/09/16 02:42:40;;;;;;;5.30;4.80;;;;;;;16.42;100.00;97810.47;4975267;28;21237;-68
2021/09/16 02:45:09;;;;;;;5.27;4.83;;;;;;;16.45;100.00;97810.03;4967294;28;20592;-66
2021/09/16 02:47:37;;;;;;;5.27;4.77;;;;;;;16.58;100.00;97808.41;4999850;28;20373;-69
2021/09/16 02:50:07;;;;;;;4.63;4.23;;;;;;;16.42;100.00;97810.47;4996530;28;20205;-67
2021/09/16 02:52:36;;;;;;;5.83;5.37;;;;;;;16.39;100.00;97810.06;4993592;28;20838;-68
2021/09/16 02:55:04;;;;;;;4.93;4.53;;;;;;;16.33;100.00;97809.03;5000062;28;20215;-69
2021/09/16 02:57:32;;;;;;;5.37;4.97;;;;;;;16.40;100.00;97806.34;4983237;28;20248;-69
2021/09/16 03:00:01;;;;;;;5.67;5.17;;;;;;;16.36;100.00;97803.25;4967140;28;20290;-69
2021/09/16 03:02:29;;;;;;;5.63;5.17;;;;;;;16.43;100.00;97803.28;4998280;28;20200;-68
2021/09/16 03:04:56;;;;;;;6.30;4.97;;;;;;;16.48;100.00;97804.31;4985177;28;20217;-69
2021/09/16 03:07:26;;;;;;;4.67;4.27;;;;;;;16.46;100.00;97819.72;4995603;28;20519;-67
2021/09/16 03:09:54;;;;;;;5.23;4.83;;;;;;;16.44;100.00;97805.72;5000774;28;20385;-69
2021/09/16 03:12:22;;;;;;;5.47;4.97;;;;;;;16.40;100.00;97804.50;4986296;28;20214;-67
2021/09/16 03:14:49;;;;;;;5.50;5.10;;;;;;;16.40;100.00;97796.47;4997306;28;20208;-68
2021/09/16 03:17:17;;;;;;;5.13;4.73;;;;;;;16.39;100.00;97797.50;4965448;28;20553;-67
2021/09/16 03:19:45;;;;;;;5.30;4.90;;;;;;;16.35;100.00;97801.63;5002544;28;20227;-67
2021/09/16 03:22:13;;;;;;;5.23;4.80;;;;;;;16.38;100.00;97805.75;5004528;28;20400;-69
2021/09/16 03:24:43;;;;;;;4.53;4.23;;;;;;;16.41;100.00;97802.66;5005175;28;20220;-67
2021/09/16 03:27:11;;;;;;;4.77;4.43;;;;;;;16.37;100.00;97794.22;4989773;28;20239;-69
2021/09/16 03:29:39;;;;;;;4.90;4.50;;;;;;;16.33;100.00;97798.31;5003916;28;20224;-70
2021/09/16 03:32:07;;;;;;;5.53;5.03;;;;;;;16.31;100.00;97787.03;4968592;28;20433;-70
2021/09/16 03:34:35;;;;;;;5.30;3.90;;;;;;;16.32;100.00;97786.81;4949846;28;20219;-69
2021/09/16 03:37:04;;;;;;;5.00;4.60;;;;;;;16.34;100.00;97789.28;5004810;28;20442;-70
2021/09/16 03:39:31;;;;;;;5.03;4.63;;;;;;;16.37;100.00;97788.06;4991676;28;20212;-69
2021/09/16 03:42:01;;;;;;;4.87;4.47;;;;;;;16.37;100.00;97788.06;4986820;28;20243;-69
2021/09/16 03:44:29;;;;;;;5.03;4.67;;;;;;;16.37;100.00;97783.50;5006065;28;20212;-68
2021/09/16 03:46:57;;;;;;;5.20;4.70;;;;;;;16.36;100.00;97787.22;4990200;28;20216;-68
2021/09/16 03:49:25;;;;;;;5.57;5.17;;;;;;;16.29;100.00;97787.25;4967278;28;20236;-69
2021/09/16 03:51:52;;;;;;;4.57;4.27;;;;;;;16.31;100.00;97789.69;5001867;28;20312;-68
2021/09/16 03:54:21;;;;;;;4.73;4.33;;;;;;;16.31;100.00;97795.03;5004666;28;20216;-68
2021/09/16 03:56:49;;;;;;;4.83;4.53;;;;;;;16.30;100.00;97786.22;4989565;28;20231;-67
2021/09/16 03:59:18;;;;;;;4.47;4.17;;;;;;;16.28;100.00;97784.75;4991989;28;20228;-67
2021/09/16 04:01:46;;;;;;;5.30;4.90;;;;;;;16.27;100.00;97785.78;4984416;28;20209;-70
2021/09/16 04:04:14;;;;;;;5.00;4.60;;;;;;;16.21;100.00;97790.09;4990857;28;20207;-67
2021/09/16 04:06:43;;;;;;;4.97;4.57;;;;;;;16.18;100.00;97790.50;4989831;28;20379;-72
2021/09/16 04:09:11;;;;;;;5.87;5.30;;;;;;;16.10;100.00;97798.72;5003977;28;20228;-70
2021/09/16 04:11:39;;;;;;;6.03;5.43;;;;;;;16.13;100.00;97801.84;4989405;28;20741;-71
2021/09/16 04:14:07;;;;;;;5.40;4.87;;;;;;;15.98;100.00;97798.50;5006859;28;20689;-70
2021/09/16 04:16:36;;;;;;;5.43;5.03;;;;;;;15.89;100.00;97798.72;4986650;28;20482;-70
2021/09/16 04:19:04;;;;;;;6.00;5.40;;;;;;;15.85;100.00;97802.78;5002412;28;20232;-71
2021/09/16 04:21:33;;;;;;;6.73;5.17;;;;;;;15.80;100.00;97805.25;4967799;28;20347;-70
2021/09/16 04:24:01;;;;;;;5.97;5.33;;;;;;;15.81;100.00;97798.03;5003617;28;20240;-70
2021/09/16 04:26:29;;;;;;;5.43;5.03;;;;;;;15.75;100.00;97792.50;4987072;28;20217;-69
2021/09/16 04:28:57;;;;;;;7.00;5.67;;;;;;;15.72;100.00;97797.41;5003873;28;20232;-70
2021/09/16 04:31:25;;;;;;;6.73;5.90;;;;;;;15.73;100.00;97799.06;5001651;28;20231;-69
2021/09/16 04:33:54;;;;;;;6.10;5.53;;;;;;;15.66;100.00;97798.22;5003877;28;20209;-70
2021/09/16 04:36:22;;;;;;;6.17;5.67;;;;;;;15.67;100.00;97803.38;4970150;28;20212;-69
2021/09/16 04:38:50;;;;;;;6.07;5.57;;;;;;;15.60;100.00;97811.34;5000412;28;20229;-71
2021/09/16 04:41:18;;;;;;;7.00;5.53;;;;;;;15.57;100.00;97811.75;4986837;28;20212;-69
2021/09/16 04:43:46;;;;;;;6.07;5.57;;;;;;;15.62;100.00;97811.16;5000380;28;20196;-71
2021/09/16 04:46:14;;;;;;;5.83;5.30;;;;;;;15.59;100.00;97811.56;4987566;28;20475;-69
2021/09/16 04:48:42;;;;;;;6.57;5.97;;;;;;;15.56;100.00;97814.63;4999550;28;20353;-70
2021/09/16 04:51:11;;;;;;;6.43;5.77;;;;;;;15.61;100.00;97817.53;4983069;28;20217;-69
2021/09/16 04:53:39;;;;;;;5.87;5.30;;;;;;;15.65;100.00;97817.94;4966752;28;20223;-71
2021/09/16 04:56:07;;;;;;;6.13;5.23;;;;;;;15.59;100.00;97814.25;4977812;28;20216;-69
2021/09/16 04:58:35;;;;;;;6.87;5.33;;;;;;;15.58;100.00;97818.75;4997264;28;20680;-70
2021/09/16 05:01:03;;;;;;;6.17;5.77;;;;;;;15.53;100.00;97812.34;4996049;28;20216;-70
2021/09/16 05:03:31;;;;;;;5.97;5.53;;;;;;;15.55;100.00;97821.81;4990997;28;20240;-69
2021/09/16 05:05:59;;;;;;;6.30;5.70;;;;;;;15.58;100.00;97821.41;5002538;28;20293;-69
2021/09/16 05:08:28;;;;;;;7.07;6.43;;;;;;;15.60;100.00;97822.03;4956495;28;20792;-69
2021/09/16 05:10:56;;;;;;;7.00;5.83;;;;;;;15.63;100.00;97824.31;4989383;28;20217;-69
2021/09/16 05:13:24;;;;;;;6.70;6.10;;;;;;;15.73;100.00;97823.13;4986955;28;20909;-69
2021/09/16 05:15:52;;;;;;;6.03;5.63;;;;;;;15.69;100.00;97829.84;5006099;28;20216;-70
2021/09/16 05:18:20;;;;;;;6.40;5.90;;;;;;;15.74;100.00;97830.91;5002237;28;20435;-70
2021/09/16 05:20:48;;;;;;;6.33;5.83;;;;;;;15.78;100.00;97828.69;4997252;28;20212;-70
2021/09/16 05:23:16;;;;;;;6.20;5.73;;;;;;;15.76;100.00;97831.53;4980959;28;20465;-69
2021/09/16 05:25:45;;;;;;;6.00;5.53;;;;;;;15.80;100.00;97834.63;4969309;28;20723;-69
2021/09/16 05:28:13;;;;;;;6.53;6.03;;;;;;;15.90;100.00;97835.09;4983861;28;20572;-69
2021/09/16 05:30:41;;;;;;;5.70;5.17;;;;;;;15.87;100.00;97832.81;5000429;28;20478;-69
2021/09/16 05:33:10;;;;;;;7.50;5.63;;;;;;;15.91;100.00;97830.59;4993203;28;20220;-69
2021/09/16 05:35:38;;;;;;;6.77;5.80;;;;;;;15.90;100.00;97831.59;4998768;28;20604;-69
2021/09/16 05:38:07;;;;;;;8.40;6.10;;;;;;;15.90;100.00;97839.59;4999291;28;20696;-69
2021/09/16 05:40:35;;;;;;;7.20;6.47;;;;;;;15.88;100.00;97838.97;4962638;28;20208;-70
2021/09/16 05:43:04;;;;;;;6.40;5.80;;;;;;;15.88;100.00;97839.81;5006103;28;20213;-70
2021/09/16 05:45:32;;;;;;;7.20;5.93;;;;;;;15.94;100.00;97840.88;4954420;28;20224;-70
2021/09/16 05:48:00;;;;;;;6.33;5.87;;;;;;;15.93;100.00;97844.56;5001350;28;20421;-70
2021/09/16 05:50:28;;;;;;;6.03;5.47;;;;;;;15.99;100.00;97843.75;4970958;28;20217;-69
2021/09/16 05:52:56;;;;;;;7.10;6.50;;;;;;;15.92;100.00;97840.25;5005513;28;20211;-69
2021/09/16 05:55:24;;;;;;;6.37;5.97;;;;;;;15.94;100.00;97846.22;4992660;28;20215;-68
2021/09/16 05:57:52;;;;;;;6.33;5.07;;;;;;;15.91;100.00;97846.63;5001783;28;20224;-68
2021/09/16 06:00:23;;;;;;;6.43;5.97;;;;;;;15.94;100.00;97840.03;4966914;28;20213;-71
2021/09/16 06:02:51;;;;;;;6.57;6.00;;;;;;;15.96;100.00;97835.31;5000256;28;20434;-69
2021/09/16 06:05:19;;;;;;;5.63;5.23;;;;;;;15.98;100.00;97839.44;5003377;28;20283;-70
2021/09/16 06:07:47;;;;;;;6.20;5.70;;;;;;;16.00;100.00;97845.41;4989856;28;20482;-70
2021/09/16 06:10:15;;;;;;;6.03;5.57;;;;;;;16.03;100.00;97849.50;5001392;28;20208;-70
2021/09/16 06:12:43;;;;;;;5.70;5.30;;;;;;;16.13;100.00;97849.94;4988667;28;20538;-70
2021/09/16 06:15:12;;;;;;;6.70;5.80;;;;;;;16.22;100.00;97855.91;4972756;28;20220;-70
2021/09/16 06:17:41;;;;;;;5.73;5.33;;;;;;;16.37;100.00;97853.03;4997225;28;20232;-69
2021/09/16 06:20:11;;;;;;;5.57;5.27;;;;;;;16.36;100.00;97846.03;5004633;28;20214;-69
2021/09/16 06:22:39;;;;;;;5.60;5.10;;;;;;;16.35;100.00;97845.25;4991426;28;20236;-68
2021/09/16 06:25:08;;;;;;;5.37;4.97;;;;;;;16.37;100.00;97849.56;5002045;28;20562;-68
2021/09/16 06:27:36;;;;;;;5.10;4.70;;;;;;;16.40;100.00;97847.28;4989722;28;20229;-69
2021/09/16 06:30:05;;;;;;;5.60;5.10;;;;;;;16.40;100.00;97846.47;4973696;28;20209;-70
2021/09/16 06:32:33;;;;;;;5.20;4.63;;;;;;;16.38;100.00;97851.22;5002299;28;20205;-69
2021/09/16 06:35:03;;;;;;;5.13;4.83;;;;;;;16.42;100.00;97855.91;4999850;28;20208;-69
2021/09/16 06:37:31;;;;;;;5.30;4.90;;;;;;;16.41;100.00;97854.28;4989131;28;20228;-69
2021/09/16 06:39:59;;;;;;;5.50;5.00;;;;;;;16.49;100.00;97854.09;4998282;28;20316;-71
2021/09/16 06:42:27;;;;;;;5.23;4.73;;;;;;;16.49;100.00;97856.78;4993890;28;20220;-69
2021/09/16 06:44:55;;;;;;;5.77;5.27;;;;;;;16.54;100.00;97853.47;5003617;28;20870;-69
2021/09/16 06:47:23;;;;;;;6.17;4.97;;;;;;;16.52;100.00;97852.84;4966778;28;20248;-68
2021/09/16 06:49:51;;;;;;;5.17;4.67;;;;;;;16.65;100.00;97846.66;4998045;28;20411;-70
2021/09/16 06:52:22;;;;;;;4.97;4.57;;;;;;;16.70;100.00;97843.38;4992508;28;20208;-69
2021/09/16 06:54:50;;;;;;;4.57;4.27;;;;;;;16.71;100.00;97847.72;4998484;28;20668;-69
2021/09/16 06:57:18;;;;;;;5.70;5.17;;;;;;;16.67;100.00;97852.63;4990799;28;20524;-71
2021/09/16 06:59:46;;;;;;;4.80;4.40;;;;;;;16.82;100.00;97860.44;5001661;28;20228;-70
2021/09/16 07:02:14;;;;;;;4.97;4.57;;;;;;;16.81;100.00;97857.97;4972374;28;20716;-69
2021/09/16 07:04:43;;;;;;;5.70;5.20;;;;;;;16.81;100.00;97863.31;4998612;28;20204;-69
2021/09/16 07:07:11;;;;;;;4.80;4.40;;;;;;;16.88;100.00;97853.44;4992358;28;20682;-70
2021/09/16 07:09:41;;;;;;;7.17;5.57;;;;;;;16.93;100.00;97859.00;4996002;28;20204;-68
2021/09/16 07:12:09;;;;;;;4.77;4.40;;;;;;;16.86;100.00;97855.50;5003724;28;20234;-70
2021/09/16 07:14:37;;;;;;;5.23;4.50;;;;;;;16.99;100.00;97857.34;4988650;28;20240;-68
2021/09/16 07:17:05;;;;;;;5.00;4.53;;;;;;;17.01;100.00;97858.81;5004572;28;20213;-68
2021/09/16 07:19:33;;;;;;;4.87;4.40;;;;;;;17.01;100.00;97849.94;4967670;28;20314;-68
2021/09/16 07:22:01;;;;;;;4.57;4.27;;;;;;;17.17;100.00;97857.53;5004038;28;20373;-68
2021/09/16 07:24:29;;;;;;;4.90;4.40;;;;;;;17.25;100.00;97851.13;4989300;28;20219;-67
2021/09/16 07:26:59;;;;;;;4.40;4.10;;;;;;;17.30;100.00;97851.31;5003358;28;20423;-70
2021/09/16 07:29:27;;;;;;;4.43;3.87;;;;;;;17.12;100.00;97859.19;4992133;28;20220;-68
2021/09/16 07:31:55;;;;;;;4.30;4.00;;;;;;;17.06;100.00;97855.50;5004109;28;20709;-70
2021/09/16 07:34:23;;;;;;;8.43;7.60;;;;;;;17.11;100.00;97861.06;4967547;28;20228;-67
2021/09/16 07:36:51;;;;;;;4.60;4.30;;;;;;;17.20;100.00;97867.81;4999768;28;20796;-70
2021/09/16 07:39:21;;;;;;;4.40;4.10;;;;;;;17.09;100.00;97871.16;4995502;28;20263;-69
2021/09/16 07:41:50;;;;;;;4.13;3.83;;;;;;;17.14;100.00;97860.63;5001219;28;20425;-70
2021/09/16 07:44:19;;;;;;;5.00;4.60;;;;;;;17.30;100.00;97867.38;4994346;28;20228;-69
2021/09/16 07:46:47;;;;;;;4.47;4.10;;;;;;;17.26;100.00;97871.53;4998905;28;20326;-70
2021/09/16 07:49:26;;;;;;;4.63;4.23;;;;;;;17.07;100.00;97871.34;4966886;28;20224;-68
2021/09/16 07:51:54;;;;;;;5.30;4.43;;;;;;;17.15;100.00;97877.50;5004964;28;20205;-69
2021/09/16 07:54:23;;;;;;;4.13;3.60;;;;;;;17.07;100.00;97873.22;4961285;28;20685;-68
2021/09/16 07:56:51;;;;;;;3.60;3.40;;;;;;;16.90;100.00;97880.81;5004023;28;20204;-69
2021/09/16 07:59:20;;;;;;;4.20;3.83;;;;;;;16.64;100.00;97885.16;4999852;28;20454;-67
2021/09/16 08:01:48;;;;;;;3.97;3.67;;;;;;;16.64;100.00;97885.16;5002604;28;20567;-70
2021/09/16 08:04:17;;;;;;;3.83;3.50;;;;;;;16.67;100.00;97884.75;4997801;28;20603;-68
2021/09/16 08:06:45;;;;;;;4.13;3.83;;;;;;;16.76;100.00;97891.53;5000482;28;20225;-69
2021/09/16 08:09:13;;;;;;;5.80;5.40;;;;;;;16.82;100.00;97894.41;4968908;28;20303;-68
2021/09/16 08:11:40;;;;;;;4.77;4.23;;;;;;;16.76;100.00;97899.56;5004642;28;20200;-69
2021/09/16 08:14:09;;;;;;;4.27;3.97;;;;;;;16.73;100.00;97897.28;5002490;28;20215;-68
2021/09/16 08:16:39;;;;;;;5.00;4.60;;;;;;;16.67;100.00;97899.97;5003487;28;20703;-70
2021/09/16 08:19:07;;;;;;;4.83;4.47;;;;;;;16.56;100.00;97898.75;5004373;28;20228;-69
2021/09/16 08:21:35;;;;;;;4.40;4.10;;;;;;;16.64;100.00;97895.84;5000890;28;20381;-72
2021/09/16 08:24:04;;;;;;;4.57;4.27;;;;;;;16.71;100.00;97902.03;4970165;28;20216;-71
2021/09/16 08:26:32;;;;;;;4.97;4.57;;;;;;;16.74;100.00;97904.28;5003077;28;20509;-71
2021/09/16 08:29:00;;;;;;;4.70;4.30;;;;;;;16.64;100.00;97909.22;5001239;28;20236;-69
2021/09/16 08:31:28;;;;;;;4.50;4.10;;;;;;;16.54;100.00;97912.31;4998796;28;20232;-72
2021/09/16 08:33:57;;;;;;;5.47;4.97;;;;;;;16.53;100.00;97905.31;5001380;28;20782;-70
2021/09/16 08:36:26;;;;;;;5.73;5.30;;;;;;;16.53;100.00;97913.34;5002529;28;20389;-69
2021/09/16 08:38:54;;;;;;;4.60;4.30;;;;;;;16.57;100.00;97903.88;4968466;28;22105;-70
2021/09/16 08:41:22;;;;;;;5.53;5.10;;;;;;;16.67;100.00;97903.47;5005018;28;20301;-69
2021/09/16 08:43:51;;;;;;;5.13;4.73;;;;;;;16.85;100.00;97904.69;5002011;28;20212;-71
2021/09/16 08:46:19;;;;;;;5.03;4.63;;;;;;;16.97;100.00;97897.69;5002260;28;20204;-73
2021/09/16 08:48:47;;;;;;;4.83;4.47;;;;;;;17.23;100.00;97897.88;4999304;28;20388;-71
2021/09/16 08:51:17;;;;;;;4.80;4.43;;;;;;;17.62;100.00;97901.47;5004146;28;20209;-70
2021/09/16 08:53:46;;;;;;;4.50;4.20;;;;;;;17.76;100.00;97896.91;4961098;28;21414;-71
2021/09/16 08:56:14;;;;;;;5.70;5.10;;;;;;;17.69;100.00;97898.78;5000184;28;20213;-69
2021/09/16 08:58:45;;;;;;;5.00;4.60;;;;;;;17.93;100.00;97898.03;5000825;28;20739;-70
2021/09/16 09:01:15;;;;;;;5.13;4.70;;;;;;;18.15;100.00;97891.56;5002460;28;20215;-70
2021/09/16 09:03:44;;;;;;;6.07;5.47;;;;;;;18.08;100.00;97895.09;4998852;28;20228;-71
2021/09/16 09:06:31;;;;;;;5.53;5.03;;;;;;;17.91;100.00;97894.75;5002840;28;20696;-70
2021/09/16 09:09:14;;;;;;;6.03;4.67;;;;;;;17.78;100.00;97901.00;5000030;28;20231;-70
2021/09/16 09:11:56;;;;;;;5.00;4.60;;;;;;;17.99;100.00;97896.38;4964606;28;20451;-70
2021/09/16 09:14:25;;;;;;;5.27;4.67;;;;;;;17.74;100.00;97893.59;5002861;28;20209;-69
2021/09/16 09:16:54;;;;;;;3.90;3.60;;;;;;;17.79;100.00;97899.94;4998396;28;20811;-68
2021/09/16 09:19:25;;;;;;;4.77;3.70;;;;;;;17.73;100.00;97905.38;5002121;28;20239;-68
2021/09/16 09:21:54;;;;;;;4.20;3.80;;;;;;;17.73;100.00;97906.16;5001143;28;20209;-70
2021/09/16 09:24:33;;;;;;;4.50;4.10;;;;;;;17.64;100.00;97900.25;4996621;28;20208;-67
2021/09/16 09:27:02;;;;;;;4.53;4.13;;;;;;;17.53;100.00;97897.41;4998460;28;20485;-69
2021/09/16 09:29:30;;;;;;;3.87;3.67;;;;;;;17.49;100.00;97911.22;5001227;28;20216;-68
2021/09/16 09:32:15;;;;;;;4.80;4.50;;;;;;;17.50;100.00;97914.72;5000662;28;20251;-70
2021/09/16 09:34:44;;;;;;;5.33;4.93;;;;;;;17.24;100.00;97912.94;4994912;28;20407;-71
2021/09/16 09:37:15;;;;;;;7.90;7.20;;;;;;;17.02;100.00;97916.66;5003286;28;20205;-70
2021/09/16 09:39:45;;;;;;;6.87;6.37;;;;;;;16.91;100.00;97919.94;4998466;28;20323;-70
2021/09/16 09:42:18;;;;;;;7.47;6.77;;;;;;;16.92;100.00;97921.59;4972289;28;20729;-67
2021/09/16 09:44:46;;;;;;;6.90;6.40;;;;;;;16.93;100.00;97916.00;4998033;28;20819;-71
2021/09/16 09:47:14;;;;;;;8.13;7.47;;;;;;;16.62;100.00;97922.00;5001110;28;20215;-70
2021/09/16 09:49:42;;;;;;;7.37;6.83;;;;;;;16.40;100.00;97926.69;4996667;28;20608;-71
2021/09/16 09:52:10;;;;;;;7.53;6.93;;;;;;;16.10;100.00;97925.22;5001257;28;20208;-70
2021/09/16 09:54:41;;;;;;;8.37;7.67;;;;;;;15.84;100.00;97934.75;4997274;28;20213;-68
2021/09/16 09:57:11;;;;;;;9.13;8.33;;;;;;;15.80;100.00;97928.16;4967465;28;20212;-69
2021/09/16 10:00:01;;;;;;;10.80;9.87;;;;;;;15.74;100.00;97923.59;4999583;28;20229;-69
2021/09/16 10:02:32;;;;;;;10.23;9.30;;;;;;;15.81;100.00;97937.81;5000570;28;20683;-71
2021/09/16 10:05:00;;;;;;;9.67;8.70;;;;;;;15.81;100.00;97931.63;4996658;28;20334;-70
2021/09/16 10:07:30;;;;;;;8.90;8.10;;;;;;;15.81;100.00;97934.31;5000142;28;20286;-69
2021/09/16 10:10:02;;;;;;;11.10;10.00;;;;;;;15.73;100.00;97938.00;4986000;28;20236;-70
2021/09/16 10:12:30;;;;;;;10.00;9.00;;;;;;;15.70;100.00;97938.34;5000810;28;20215;-70
2021/09/16 10:15:08;;;;;;;10.60;9.53;;;;;;;15.62;100.00;97934.84;4986635;28;20351;-70
2021/09/16 10:17:37;;;;;;;10.67;9.73;;;;;;;15.65;100.00;97938.97;4966335;28;20235;-70
2021/09/16 10:20:07;;;;;;;11.27;9.77;;;;;;;15.59;100.00;97948.59;4999582;28;20228;-70
2021/09/16 10:22:35;;;;;;;11.60;10.50;;;;;;;15.56;100.00;97949.00;5001204;28;20650;-70
2021/09/16 10:25:06;;;;;;;11.53;10.33;;;;;;;15.56;100.00;97946.31;4999845;28;20208;-71
2021/09/16 10:27:40;;;;;;;11.77;10.77;;;;;;;15.67;100.00;97949.44;5000616;28;20432;-70
2021/09/16 10:30:37;;;;;;;12.30;11.20;;;;;;;15.62;100.00;97948.19;4991598;28;20558;-70
2021/09/16 10:33:12;;;;;;;13.03;11.27;;;;;;;15.46;100.00;97948.53;4969474;28;20767;-69
2021/09/16 10:35:42;;;;;;;13.20;11.93;;;;;;;15.48;100.00;97946.47;5006012;28;20291;-69
2021/09/16 10:38:21;;;;;;;13.67;12.27;;;;;;;15.41;100.00;97940.28;5003889;28;20473;-70
2021/09/16 10:41:10;;;;;;;14.97;13.33;;;;;;;15.54;100.00;97940.34;5002793;28;20231;-69
2021/09/16 10:43:39;;;;;;;14.83;13.33;;;;;;;15.63;100.00;97949.03;5004177;28;20786;-71
2021/09/16 10:46:25;;;;;;;14.43;12.93;;;;;;;15.71;100.00;97945.34;4955101;28;20396;-72
2021/09/16 10:48:54;;;;;;;13.40;12.07;;;;;;;15.81;100.00;97943.16;5002908;28;20232;-69
2021/09/16 10:51:40;;;;;;;16.17;14.47;;;;;;;15.81;100.00;97939.66;5004676;28;20208;-71
2021/09/16 10:54:40;;;;;;;14.63;13.13;;;;;;;15.90;100.00;97941.16;5002292;28;20408;-71
2021/09/16 10:57:11;;;;;;;16.50;14.80;;;;;;;16.10;100.00;97940.41;5002575;28;20675;-71
2021/09/16 11:00:01;;;;;;;16.73;14.60;;;;;;;16.25;100.00;97941.06;5004615;28;20208;-70
2021/09/16 11:03:12;;;;;;;16.17;14.67;;;;;;;16.19;100.00;97944.53;4969031;28;20217;-70
2021/09/16 11:05:50;;;;;;;16.63;14.93;;;;;;;15.99;100.00;97926.59;5005202;28;20250;-70
2021/09/16 11:08:20;;;;;;;17.63;15.63;;;;;;;16.15;100.00;97935.28;5002253;28;21015;-71
2021/09/16 11:10:57;;;;;;;16.23;14.73;;;;;;;16.04;100.00;97931.31;5001463;28;20755;-70
2021/09/16 11:13:50;;;;;;;16.97;15.10;;;;;;;16.09;100.00;97923.53;5002769;28;20208;-71
2021/09/16 11:16:26;;;;;;;16.17;14.57;;;;;;;16.09;100.00;97930.75;4993007;28;20300;-68
2021/09/16 11:19:02;;;;;;;16.83;15.30;;;;;;;16.09;100.00;97942.25;4967852;28;20236;-68
2021/09/16 11:21:31;;;;;;;16.83;15.23;;;;;;;16.02;100.00;97928.88;5002856;28;20547;-70
2021/09/16 11:23:59;;;;;;;15.80;14.20;;;;;;;16.09;100.00;97928.06;4998633;28;20227;-68
2021/09/16 11:26:29;;;;;;;14.70;13.13;;;;;;;15.95;100.00;97925.38;5002250;28;20212;-72
2021/09/16 11:29:06;;;;;;;14.63;13.27;;;;;;;15.83;100.00;97924.25;5000285;28;20739;-70
2021/09/16 11:31:34;;;;;;;14.57;13.27;;;;;;;15.74;100.00;97926.28;4992317;28;20282;-70
2021/09/16 11:34:09;;;;;;;13.17;11.93;;;;;;;15.63;100.00;97933.00;4967192;28;21053;-70
2021/09/16 11:36:37;;;;;;;12.97;11.73;;;;;;;15.59;100.00;97931.75;5002444;28;20224;-70